N511WM KPBX-KW24
Flight info
| Callsign | N511WM |
|---|---|
| Flight time | N/A |
| Altitude | 17000 |
| Route | KONGO Q34 SITTR Q108 DENNY |
| Aircraft | BE60/L-SDFGRY/C |
Departure
| Time | 2026-05-04 17:21 |
|---|---|
| Airport | Pike County Airport Hatcher Field (KPBX) |
Arrival
| Time | N/A |
|---|---|
| Airport | KW24 |
| Time | Latitude | Longitude | Altitude | Speed | Heading |
|---|---|---|---|---|---|
| 2026-05-04 17:15 | 37.55913 | -82.56505 | 1429 ft | 0 kts | 198° |
| 2026-05-04 17:19 | 37.55907 | -82.56513 | 1429 ft | 6 kts | 262° |
| 2026-05-04 17:19 | 37.56012 | -82.56521 | 1427 ft | 10 kts | 91° |
| 2026-05-04 17:20 | 37.56022 | -82.56262 | 1427 ft | 15 kts | 86° |
| 2026-05-04 17:20 | 37.56104 | -82.56236 | 1426 ft | 12 kts | 266° |
| 2026-05-04 17:20 | 37.56092 | -82.56512 | 1427 ft | 67 kts | 267° |
| 2026-05-04 17:21 | 37.55893 | -82.58325 | 1824 ft | 125 kts | 231° |
| 2026-05-04 17:21 | 37.54603 | -82.57821 | 2791 ft | 126 kts | 98° |
| 2026-05-04 17:22 | 37.54598 | -82.56734 | 3286 ft | 127 kts | 94° |
| 2026-05-04 17:22 | 37.54470 | -82.55609 | 3700 ft | 131 kts | 101° |
| 2026-05-04 17:23 | 37.54036 | -82.52236 | 5028 ft | 130 kts | 100° |
| 2026-05-04 17:23 | 37.53934 | -82.51083 | 5370 ft | 137 kts | 96° |
| 2026-05-04 17:23 | 37.53722 | -82.48555 | 5990 ft | 150 kts | 97° |
| 2026-05-04 17:24 | 37.53606 | -82.47244 | 6340 ft | 151 kts | 97° |
| 2026-05-04 17:24 | 37.53249 | -82.43275 | 7297 ft | 159 kts | 97° |
| 2026-05-04 17:25 | 37.53118 | -82.41823 | 7356 ft | 174 kts | 97° |
| 2026-05-04 17:25 | 37.52829 | -82.38658 | 7545 ft | 188 kts | 97° |
| 2026-05-04 17:26 | 37.52527 | -82.35333 | 7725 ft | 193 kts | 97° |
| 2026-05-04 17:26 | 37.52064 | -82.30261 | 8084 ft | 193 kts | 97° |
| 2026-05-04 17:27 | 37.51773 | -82.27061 | 8745 ft | 174 kts | 97° |
| 2026-05-04 17:27 | 37.51504 | -82.24108 | 9376 ft | 169 kts | 97° |
| 2026-05-04 17:28 | 37.51221 | -82.21033 | 9938 ft | 173 kts | 97° |
| 2026-05-04 17:29 | 37.50819 | -82.16695 | 10846 ft | 163 kts | 97° |
| 2026-05-04 17:29 | 37.50896 | -82.12384 | 11611 ft | 183 kts | 62° |
| 2026-05-04 17:30 | 37.52245 | -82.07516 | 12647 ft | 205 kts | 64° |
| 2026-05-04 17:31 | 37.53193 | -82.04080 | 13467 ft | 209 kts | 64° |
| 2026-05-04 17:31 | 37.54624 | -81.98870 | 14787 ft | 212 kts | 64° |
| 2026-05-04 17:32 | 37.55597 | -81.95345 | 15679 ft | 214 kts | 64° |
| 2026-05-04 17:33 | 37.57056 | -81.90028 | 16908 ft | 216 kts | 64° |
| 2026-05-04 17:33 | 37.57567 | -81.88176 | 17026 ft | 234 kts | 64° |
| 2026-05-04 17:34 | 37.59315 | -81.81765 | 17039 ft | 274 kts | 66° |
| 2026-05-04 17:34 | 37.59942 | -81.79463 | 17038 ft | 280 kts | 66° |
| 2026-05-04 17:35 | 37.61891 | -81.72315 | 17053 ft | 292 kts | 66° |
| 2026-05-04 17:35 | 37.63216 | -81.67434 | 17054 ft | 296 kts | 66° |
| 2026-05-04 17:35 | 37.63887 | -81.64968 | 17054 ft | 298 kts | 66° |
| 2026-05-04 17:36 | 37.64556 | -81.62494 | 17057 ft | 298 kts | 66° |
| 2026-05-04 17:36 | 37.65228 | -81.60012 | 17056 ft | 299 kts | 66° |
| 2026-05-04 17:36 | 37.65901 | -81.57533 | 17056 ft | 299 kts | 66° |
| 2026-05-04 17:36 | 37.66572 | -81.55055 | 17057 ft | 298 kts | 66° |
| 2026-05-04 17:37 | 37.67232 | -81.52607 | 17054 ft | 298 kts | 66° |
| 2026-05-04 17:37 | 37.67901 | -81.50130 | 17056 ft | 298 kts | 66° |
| 2026-05-04 17:37 | 37.68570 | -81.47648 | 17053 ft | 299 kts | 66° |
| 2026-05-04 17:37 | 37.69239 | -81.45166 | 17053 ft | 299 kts | 66° |
| 2026-05-04 17:38 | 37.69908 | -81.42682 | 17052 ft | 299 kts | 66° |
| 2026-05-04 17:38 | 37.70575 | -81.40194 | 17052 ft | 299 kts | 66° |
| 2026-05-04 17:38 | 37.71244 | -81.37712 | 17053 ft | 299 kts | 66° |
| 2026-05-04 17:38 | 37.71911 | -81.35226 | 17052 ft | 299 kts | 66° |
| 2026-05-04 17:39 | 37.73244 | -81.30245 | 17042 ft | 299 kts | 66° |
| 2026-05-04 17:39 | 37.73913 | -81.27757 | 17044 ft | 299 kts | 66° |
| 2026-05-04 17:39 | 37.74579 | -81.25267 | 17044 ft | 299 kts | 66° |
| 2026-05-04 17:40 | 37.75243 | -81.22774 | 17043 ft | 300 kts | 66° |
| 2026-05-04 17:40 | 37.75910 | -81.20277 | 17044 ft | 300 kts | 66° |
| 2026-05-04 17:40 | 37.76576 | -81.17779 | 17044 ft | 300 kts | 66° |
| 2026-05-04 17:40 | 37.77242 | -81.15281 | 17041 ft | 300 kts | 67° |
| 2026-05-04 17:41 | 37.77892 | -81.12776 | 17045 ft | 301 kts | 70° |
| 2026-05-04 17:41 | 37.78181 | -81.10138 | 17044 ft | 305 kts | 83° |
| 2026-05-04 17:41 | 37.78283 | -81.08367 | 17044 ft | 305 kts | 82° |
| 2026-05-04 17:41 | 37.78470 | -81.05695 | 17046 ft | 305 kts | 82° |
| 2026-05-04 17:42 | 37.78665 | -81.03024 | 17045 ft | 305 kts | 82° |
| 2026-05-04 17:42 | 37.78844 | -81.00344 | 17045 ft | 306 kts | 82° |
| 2026-05-04 17:42 | 37.79017 | -80.97666 | 17044 ft | 306 kts | 82° |
| 2026-05-04 17:42 | 37.79196 | -80.94985 | 17043 ft | 305 kts | 82° |
| 2026-05-04 17:43 | 37.79378 | -80.92311 | 17044 ft | 306 kts | 82° |
| 2026-05-04 17:43 | 37.79556 | -80.89631 | 17044 ft | 306 kts | 83° |
| 2026-05-04 17:43 | 37.79734 | -80.86948 | 17041 ft | 306 kts | 83° |
| 2026-05-04 17:43 | 37.79906 | -80.84307 | 17041 ft | 305 kts | 82° |
| 2026-05-04 17:44 | 37.80085 | -80.81601 | 17043 ft | 305 kts | 82° |
| 2026-05-04 17:44 | 37.80261 | -80.78924 | 17036 ft | 305 kts | 82° |
| 2026-05-04 17:44 | 37.80434 | -80.76285 | 17037 ft | 305 kts | 82° |
| 2026-05-04 17:44 | 37.80606 | -80.73613 | 17035 ft | 305 kts | 82° |
| 2026-05-04 17:45 | 37.80779 | -80.70935 | 17034 ft | 305 kts | 82° |
| 2026-05-04 17:45 | 37.80952 | -80.68263 | 17034 ft | 305 kts | 82° |
| 2026-05-04 17:45 | 37.81125 | -80.65590 | 17035 ft | 305 kts | 82° |
| 2026-05-04 17:45 | 37.81297 | -80.62916 | 17035 ft | 305 kts | 82° |
| 2026-05-04 17:46 | 37.81468 | -80.60244 | 17036 ft | 305 kts | 82° |
| 2026-05-04 17:46 | 37.81638 | -80.57569 | 17036 ft | 305 kts | 82° |
| 2026-05-04 17:46 | 37.81807 | -80.54897 | 17036 ft | 305 kts | 82° |
| 2026-05-04 17:46 | 37.81976 | -80.52221 | 17034 ft | 305 kts | 82° |
| 2026-05-04 17:47 | 37.82144 | -80.49545 | 17034 ft | 305 kts | 83° |
| 2026-05-04 17:47 | 37.82313 | -80.46865 | 17036 ft | 306 kts | 83° |
| 2026-05-04 17:47 | 37.82480 | -80.44192 | 17034 ft | 305 kts | 83° |
| 2026-05-04 17:47 | 37.82647 | -80.41517 | 17033 ft | 305 kts | 83° |
| 2026-05-04 17:48 | 37.82812 | -80.38848 | 17033 ft | 304 kts | 83° |
| 2026-05-04 17:48 | 37.82977 | -80.36182 | 17031 ft | 304 kts | 82° |
| 2026-05-04 17:48 | 37.83142 | -80.33514 | 17033 ft | 304 kts | 83° |
| 2026-05-04 17:48 | 37.83306 | -80.30847 | 17035 ft | 304 kts | 82° |
| 2026-05-04 17:49 | 37.83465 | -80.28219 | 17031 ft | 303 kts | 83° |
| 2026-05-04 17:49 | 37.83628 | -80.25564 | 17025 ft | 303 kts | 82° |
| 2026-05-04 17:49 | 37.83789 | -80.22915 | 17031 ft | 302 kts | 83° |
| 2026-05-04 17:49 | 37.83950 | -80.20255 | 16947 ft | 306 kts | 83° |
| 2026-05-04 17:50 | 37.84116 | -80.17519 | 16585 ft | 317 kts | 83° |
| 2026-05-04 17:50 | 37.84282 | -80.14718 | 16292 ft | 317 kts | 83° |
| 2026-05-04 17:50 | 37.84445 | -80.11964 | 16061 ft | 310 kts | 83° |
| 2026-05-04 17:50 | 37.84606 | -80.09227 | 15806 ft | 313 kts | 83° |
| 2026-05-04 17:51 | 37.84768 | -80.06476 | 15565 ft | 312 kts | 83° |
| 2026-05-04 17:51 | 37.84931 | -80.03745 | 15337 ft | 313 kts | 83° |
| 2026-05-04 17:51 | 37.85096 | -80.01017 | 15125 ft | 308 kts | 83° |
| 2026-05-04 17:51 | 37.85253 | -79.98328 | 14881 ft | 304 kts | 83° |
| 2026-05-04 17:52 | 37.85414 | -79.95662 | 14667 ft | 304 kts | 83° |
| 2026-05-04 17:52 | 37.85571 | -79.93001 | 14468 ft | 302 kts | 83° |
| 2026-05-04 17:52 | 37.85719 | -79.90359 | 14257 ft | 299 kts | 83° |
| 2026-05-04 17:52 | 37.85880 | -79.87736 | 13980 ft | 300 kts | 83° |
| 2026-05-04 17:53 | 37.86005 | -79.85105 | 13715 ft | 300 kts | 84° |
| 2026-05-04 17:53 | 37.86153 | -79.82471 | 13433 ft | 300 kts | 83° |
| 2026-05-04 17:53 | 37.86315 | -79.79873 | 13153 ft | 299 kts | 83° |
| 2026-05-04 17:53 | 37.86435 | -79.77264 | 12865 ft | 297 kts | 89° |
| 2026-05-04 17:54 | 37.86097 | -79.74688 | 12581 ft | 296 kts | 107° |
| 2026-05-04 17:54 | 37.85261 | -79.72321 | 12301 ft | 293 kts | 122° |
| 2026-05-04 17:54 | 37.84008 | -79.70323 | 12022 ft | 289 kts | 138° |
| 2026-05-04 17:54 | 37.82580 | -79.68546 | 11748 ft | 288 kts | 137° |
| 2026-05-04 17:55 | 37.81174 | -79.66751 | 11440 ft | 287 kts | 137° |
| 2026-05-04 17:55 | 37.79772 | -79.64964 | 11198 ft | 286 kts | 138° |
| 2026-05-04 17:55 | 37.78366 | -79.63189 | 10902 ft | 284 kts | 138° |
| 2026-05-04 17:55 | 37.76976 | -79.61431 | 10599 ft | 282 kts | 138° |
| 2026-05-04 17:56 | 37.75594 | -79.59683 | 10305 ft | 280 kts | 138° |
| 2026-05-04 17:56 | 37.74224 | -79.57955 | 10046 ft | 277 kts | 139° |
| 2026-05-04 17:56 | 37.72871 | -79.56244 | 9795 ft | 273 kts | 138° |
| 2026-05-04 17:56 | 37.71540 | -79.54555 | 9531 ft | 269 kts | 139° |
| 2026-05-04 17:57 | 37.70239 | -79.52915 | 9229 ft | 266 kts | 139° |
| 2026-05-04 17:57 | 37.68934 | -79.51272 | 8959 ft | 263 kts | 139° |
| 2026-05-04 17:57 | 37.67624 | -79.49620 | 8680 ft | 262 kts | 139° |
| 2026-05-04 17:57 | 37.66355 | -79.48023 | 8415 ft | 260 kts | 139° |
| 2026-05-04 17:58 | 37.65083 | -79.46418 | 8152 ft | 258 kts | 139° |
| 2026-05-04 17:58 | 37.63818 | -79.44821 | 7890 ft | 256 kts | 139° |
| 2026-05-04 17:58 | 37.62560 | -79.43242 | 7641 ft | 255 kts | 139° |
| 2026-05-04 17:58 | 37.61305 | -79.41666 | 7404 ft | 254 kts | 139° |
| 2026-05-04 17:59 | 37.60046 | -79.40087 | 7101 ft | 255 kts | 139° |
| 2026-05-04 17:59 | 37.58788 | -79.38506 | 6814 ft | 255 kts | 139° |
| 2026-05-04 17:59 | 37.56271 | -79.35336 | 6108 ft | 255 kts | 139° |
| 2026-05-04 18:00 | 37.55029 | -79.33779 | 5752 ft | 243 kts | 139° |
| 2026-05-04 18:00 | 37.53879 | -79.32333 | 5389 ft | 225 kts | 139° |
| 2026-05-04 18:00 | 37.52814 | -79.30992 | 5014 ft | 207 kts | 139° |
| 2026-05-04 18:00 | 37.51836 | -79.29764 | 4635 ft | 191 kts | 139° |
| 2026-05-04 18:01 | 37.50918 | -79.28615 | 4262 ft | 182 kts | 139° |
| 2026-05-04 18:01 | 37.50037 | -79.27514 | 3887 ft | 176 kts | 139° |
| 2026-05-04 18:01 | 37.49181 | -79.26445 | 3521 ft | 172 kts | 139° |
| 2026-05-04 18:02 | 37.47523 | -79.24375 | 3032 ft | 170 kts | 139° |
| 2026-05-04 18:02 | 37.46691 | -79.23338 | 2925 ft | 171 kts | 139° |
| 2026-05-04 18:02 | 37.45853 | -79.22295 | 2768 ft | 171 kts | 138° |
| 2026-05-04 18:02 | 37.44995 | -79.21226 | 2586 ft | 173 kts | 139° |
| 2026-05-04 18:03 | 37.44136 | -79.20152 | 2437 ft | 175 kts | 139° |
| 2026-05-04 18:03 | 37.43275 | -79.19073 | 2332 ft | 175 kts | 139° |
| 2026-05-04 18:03 | 37.42414 | -79.18000 | 2191 ft | 174 kts | 138° |
| 2026-05-04 18:03 | 37.41555 | -79.16924 | 2042 ft | 174 kts | 137° |
| 2026-05-04 18:04 | 37.40712 | -79.15871 | 1926 ft | 166 kts | 137° |
| 2026-05-04 18:04 | 37.39946 | -79.14859 | 1869 ft | 154 kts | 125° |
| 2026-05-04 18:04 | 37.39701 | -79.12660 | 1861 ft | 109 kts | 91° |
| 2026-05-04 18:05 | 37.39679 | -79.11713 | 1877 ft | 110 kts | 92° |
| 2026-05-04 18:05 | 37.39657 | -79.10719 | 1869 ft | 115 kts | 92° |
| 2026-05-04 18:05 | 37.39633 | -79.09728 | 1868 ft | 112 kts | 97° |
| 2026-05-04 18:05 | 37.39199 | -79.08984 | 1733 ft | 107 kts | 160° |
| 2026-05-04 18:06 | 37.38008 | -79.09418 | 1481 ft | 91 kts | 233° |
| 2026-05-04 18:06 | 37.37742 | -79.10138 | 1282 ft | 92 kts | 259° |
| 2026-05-04 18:06 | 37.37737 | -79.10922 | 980 ft | 89 kts | 275° |
| 2026-05-04 18:07 | 37.37780 | -79.11679 | 806 ft | 83 kts | 274° |
| 2026-05-04 18:07 | 37.37810 | -79.12244 | 869 ft | 43 kts | 274° |
| 2026-05-04 18:07 | 37.37823 | -79.12439 | 937 ft | 11 kts | 297° |
| 2026-05-04 18:07 | 37.37839 | -79.12451 | 939 ft | 0 kts | 8° |
| 2026-05-04 18:08 | 37.37848 | -79.12414 | 933 ft | 7 kts | 90° |
| 2026-05-04 18:08 | 37.37846 | -79.12338 | 911 ft | 9 kts | 93° |
| 2026-05-04 18:08 | 37.37838 | -79.12240 | 868 ft | 11 kts | 96° |
| 2026-05-04 18:08 | 37.37832 | -79.12167 | 836 ft | 7 kts | 97° |
| 2026-05-04 18:09 | 37.37864 | -79.12080 | 823 ft | 10 kts | 343° |
| 2026-05-04 18:09 | 37.37909 | -79.12099 | 822 ft | 1 kts | 124° |
| 2026-05-04 18:10 | 37.37905 | -79.12092 | 822 ft | 0 kts | 134° |